Time;durP1;ratioP1;P1;durP2;ratioP2;P2;SDS_P1;SDS_P2;PMS_P1;PMS_P2;Temp;Humidity;BMP_temperature;BMP_pressure;BME280_temperature;BME280_humidity;BME280_pressure;Samples;Min_cycle;Max_cycle;Signal;HPM_P1;HPM_P2
2023/07/03 00:00:12;;;;;;;11.55;2.92;;;25.60;99.90;;;;;;5047222;28;20538;-57
2023/07/03 00:02:42;;;;;;;3.13;2.80;;;25.70;99.90;;;;;;5046977;28;20028;-54
2023/07/03 00:05:10;;;;;;;3.40;2.70;;;25.60;99.90;;;;;;5054029;28;20029;-53
2023/07/03 00:07:39;;;;;;;4.65;2.80;;;25.50;99.90;;;;;;5046437;28;20056;-53
2023/07/03 00:10:06;;;;;;;6.20;2.75;;;25.50;99.90;;;;;;5046734;28;20036;-55
2023/07/03 00:12:32;;;;;;;4.57;3.00;;;25.50;99.90;;;;;;5052249;28;20032;-53
2023/07/03 00:14:58;;;;;;;3.83;2.67;;;25.60;99.90;;;;;;5042906;28;20033;-56
2023/07/03 00:17:24;;;;;;;4.88;3.05;;;25.50;99.90;;;;;;5042740;28;20078;-54
2023/07/03 00:19:49;;;;;;;5.63;3.13;;;25.50;99.90;;;;;;5044327;28;20057;-55
2023/07/03 00:22:15;;;;;;;4.63;2.53;;;25.40;99.90;;;;;;5047219;28;20028;-55
2023/07/03 00:24:40;;;;;;;5.03;2.70;;;25.40;99.90;;;;;;5045802;28;20036;-57
2023/07/03 00:27:07;;;;;;;4.00;2.70;;;25.40;99.90;;;;;;5049716;28;20169;-56
2023/07/03 00:29:33;;;;;;;4.05;2.70;;;25.40;99.90;;;;;;5046388;28;20386;-53
2023/07/03 00:32:00;;;;;;;5.22;2.80;;;25.50;99.90;;;;;;5040928;28;20426;-53
2023/07/03 00:34:26;;;;;;;6.28;3.33;;;25.30;99.90;;;;;;5042128;28;20082;-55
2023/07/03 00:36:53;;;;;;;5.93;3.17;;;25.50;99.90;;;;;;5050527;28;20029;-54
2023/07/03 00:39:19;;;;;;;4.07;3.00;;;25.40;99.90;;;;;;5037184;28;20022;-53
2023/07/03 00:41:45;;;;;;;5.82;2.65;;;25.30;99.90;;;;;;5039050;28;20021;-55
2023/07/03 00:44:13;;;;;;;2.67;2.45;;;25.30;99.90;;;;;;5041235;28;20029;-54
2023/07/03 00:46:40;;;;;;;7.10;2.80;;;25.30;99.90;;;;;;5045039;28;20086;-55
2023/07/03 00:49:07;;;;;;;3.97;2.80;;;25.30;99.90;;;;;;5039530;28;20037;-53
2023/07/03 00:51:33;;;;;;;6.38;2.67;;;25.20;99.90;;;;;;5047489;28;20027;-57
2023/07/03 00:53:58;;;;;;;4.40;2.97;;;25.20;99.90;;;;;;5046704;28;20033;-55
2023/07/03 00:56:24;;;;;;;5.40;2.80;;;25.30;99.90;;;;;;5051538;28;20906;-52
2023/07/03 00:58:50;;;;;;;6.22;3.10;;;25.30;99.90;;;;;;5051370;28;20021;-56
2023/07/03 01:01:34;;;;;;;3.35;2.65;;;25.30;99.90;;;;;;5051581;28;20021;-55
2023/07/03 01:04:06;;;;;;;;;;;25.40;99.90;;;;;;5046339;28;20037;-57
2023/07/03 01:06:56;;;;;;;4.25;2.53;;;25.40;99.90;;;;;;5041243;28;20348;-55
2023/07/03 01:09:26;;;;;;;7.25;3.08;;;25.40;99.90;;;;;;5036330;28;20575;-56
2023/07/03 01:11:53;;;;;;;4.28;2.88;;;25.60;99.90;;;;;;5050393;28;20026;-54
2023/07/03 01:14:22;;;;;;;2.85;2.50;;;25.70;99.90;;;;;;5046119;28;20071;-54
2023/07/03 01:16:49;;;;;;;5.00;3.10;;;25.70;99.90;;;;;;5044261;28;20036;-57
2023/07/03 01:19:24;;;;;;;3.17;2.70;;;25.50;99.90;;;;;;5054212;28;20507;-56
2023/07/03 01:21:59;;;;;;;3.92;2.60;;;25.50;99.90;;;;;;5042442;28;20027;-58
2023/07/03 01:24:48;;;;;;;5.63;3.22;;;25.60;99.90;;;;;;5045588;28;20029;-52
2023/07/03 01:27:19;;;;;;;4.10;2.67;;;25.50;99.90;;;;;;5042611;28;20036;-51
2023/07/03 01:29:46;;;;;;;4.15;2.83;;;25.50;99.90;;;;;;5032991;28;20267;-50
2023/07/03 01:32:14;;;;;;;3.63;2.47;;;25.40;99.90;;;;;;5042399;28;20480;-53
2023/07/03 01:34:45;;;;;;;3.92;3.03;;;25.30;99.90;;;;;;5041156;28;20108;-52
2023/07/03 01:37:13;;;;;;;5.28;3.00;;;25.40;99.90;;;;;;5038086;28;20036;-54
2023/07/03 01:39:43;;;;;;;4.80;2.72;;;25.60;99.90;;;;;;5041756;28;20033;-55
2023/07/03 01:42:10;;;;;;;5.68;2.83;;;25.60;99.90;;;;;;5043668;28;20078;-55
2023/07/03 01:44:36;;;;;;;4.25;3.03;;;25.50;99.90;;;;;;5034692;28;20079;-53
2023/07/03 01:47:08;;;;;;;4.82;2.95;;;25.70;99.90;;;;;;5043017;28;20032;-56
2023/07/03 01:49:33;;;;;;;4.93;2.60;;;25.40;99.90;;;;;;5043043;28;20063;-54
2023/07/03 01:52:08;;;;;;;3.47;2.60;;;25.60;99.90;;;;;;5041592;28;20479;-55
2023/07/03 01:54:38;;;;;;;;;;;25.60;99.90;;;;;;5052051;28;20028;-54
2023/07/03 01:57:05;;;;;;;6.15;2.78;;;25.60;99.90;;;;;;5034741;28;20385;-56
2023/07/03 01:59:33;;;;;;;6.05;3.42;;;25.60;99.90;;;;;;5052437;28;20013;-53
2023/07/03 02:02:10;;;;;;;7.13;3.10;;;25.70;99.90;;;;;;5046065;28;20029;-56
2023/07/03 02:04:52;;;;;;;6.50;3.00;;;25.60;99.90;;;;;;5048284;28;20108;-52
2023/07/03 02:07:19;;;;;;;2.75;2.38;;;25.60;99.90;;;;;;5044152;28;20108;-55
2023/07/03 02:09:45;;;;;;;5.45;3.10;;;25.50;99.90;;;;;;5053222;28;20370;-56
2023/07/03 02:12:11;;;;;;;4.55;3.00;;;25.60;99.90;;;;;;5045658;28;20036;-51
2023/07/03 02:14:38;;;;;;;2.83;2.50;;;25.60;99.90;;;;;;5037222;28;20513;-54
2023/07/03 02:17:06;;;;;;;6.32;3.30;;;25.60;99.90;;;;;;5044457;28;20029;-56
2023/07/03 02:19:33;;;;;;;5.65;3.22;;;25.60;99.90;;;;;;5048427;28;20029;-53
2023/07/03 02:21:59;;;;;;;5.18;2.78;;;25.60;99.90;;;;;;5038248;28;20048;-55
2023/07/03 02:24:26;;;;;;;5.72;2.40;;;25.60;99.90;;;;;;5036826;28;20056;-53
2023/07/03 02:26:52;;;;;;;5.28;3.08;;;25.60;99.90;;;;;;5040386;28;20495;-55
2023/07/03 02:29:18;;;;;;;6.80;3.00;;;25.50;99.90;;;;;;5038105;28;20068;-55
2023/07/03 02:31:43;;;;;;;4.43;2.70;;;25.60;99.90;;;;;;5050485;28;20065;-53
2023/07/03 02:34:09;;;;;;;4.03;2.60;;;25.50;99.90;;;;;;5051429;28;20075;-53
2023/07/03 02:36:37;;;;;;;7.13;3.10;;;25.50;99.90;;;;;;5043173;28;20053;-55
2023/07/03 02:39:04;;;;;;;3.50;3.08;;;25.40;99.90;;;;;;5048442;28;20029;-53
2023/07/03 02:41:33;;;;;;;5.25;3.03;;;25.40;99.90;;;;;;5043134;28;20104;-54
2023/07/03 02:43:59;;;;;;;6.65;3.20;;;25.30;99.90;;;;;;5045557;28;20048;-55
2023/07/03 02:46:25;;;;;;;3.67;2.97;;;25.30;99.90;;;;;;5050290;28;20060;-55
2023/07/03 02:48:51;;;;;;;5.22;2.72;;;25.30;99.90;;;;;;5056577;28;20387;-53
2023/07/03 02:51:18;;;;;;;4.57;2.78;;;25.20;99.90;;;;;;5044948;28;20037;-53
2023/07/03 02:53:43;;;;;;;4.97;3.05;;;25.20;99.90;;;;;;5055892;28;20037;-54
2023/07/03 02:56:09;;;;;;;5.38;3.13;;;25.20;99.90;;;;;;5043324;28;20036;-55
2023/07/03 02:58:35;;;;;;;3.28;2.95;;;25.20;99.90;;;;;;5054516;28;20025;-53
2023/07/03 03:01:01;;;;;;;4.57;2.90;;;25.20;99.90;;;;;;5049614;28;20040;-55
2023/07/03 03:03:28;;;;;;;4.97;3.17;;;25.10;99.90;;;;;;5055249;28;20087;-54
2023/07/03 03:05:55;;;;;;;5.60;3.63;;;25.20;99.90;;;;;;5046084;28;20116;-52
2023/07/03 03:08:24;;;;;;;5.45;3.10;;;25.30;99.90;;;;;;5046747;28;20052;-55
2023/07/03 03:10:54;;;;;;;5.05;3.30;;;25.20;99.90;;;;;;5037274;28;20041;-55
2023/07/03 03:13:19;;;;;;;5.07;3.20;;;25.20;99.90;;;;;;5056262;28;20074;-57
2023/07/03 03:15:45;;;;;;;3.47;2.92;;;25.20;99.90;;;;;;5047643;28;20025;-54
2023/07/03 03:18:11;;;;;;;4.50;3.10;;;25.20;99.90;;;;;;5048628;28;20391;-54
2023/07/03 03:20:37;;;;;;;5.03;3.40;;;25.30;99.90;;;;;;5045141;28;20129;-52
2023/07/03 03:23:02;;;;;;;5.63;3.42;;;25.20;99.90;;;;;;5054372;28;20024;-52
2023/07/03 03:25:29;;;;;;;4.93;3.22;;;25.20;99.90;;;;;;5045267;28;20033;-52
2023/07/03 03:27:55;;;;;;;5.68;3.20;;;25.30;99.90;;;;;;5041322;28;20048;-55
2023/07/03 03:30:21;;;;;;;3.83;2.85;;;25.30;99.90;;;;;;5052249;28;20041;-54
2023/07/03 03:32:47;;;;;;;3.55;3.25;;;25.30;99.90;;;;;;5051046;28;20025;-56
2023/07/03 03:35:13;;;;;;;6.45;3.70;;;25.20;99.90;;;;;;5051330;28;20045;-56
2023/07/03 03:37:38;;;;;;;7.20;3.35;;;25.20;99.90;;;;;;5049884;28;20036;-55
2023/07/03 03:40:07;;;;;;;6.25;3.28;;;25.30;99.90;;;;;;5053526;28;20037;-55
2023/07/03 03:42:33;;;;;;;5.05;3.40;;;25.20;99.90;;;;;;5052877;28;20021;-55
2023/07/03 03:44:59;;;;;;;7.30;3.22;;;25.20;99.90;;;;;;5052976;28;20076;-54
2023/07/03 03:47:25;;;;;;;5.82;2.97;;;25.20;99.90;;;;;;5045819;28;20418;-55
2023/07/03 03:49:52;;;;;;;6.88;3.40;;;25.40;99.90;;;;;;5041279;28;20041;-52
2023/07/03 03:52:18;;;;;;;5.72;3.33;;;25.30;99.90;;;;;;5054582;28;20478;-55
2023/07/03 03:54:43;;;;;;;4.07;2.47;;;25.40;99.90;;;;;;5053875;28;20028;-54
2023/07/03 03:57:09;;;;;;;6.20;2.92;;;25.50;99.90;;;;;;5051375;28;20053;-55
2023/07/03 03:59:34;;;;;;;5.32;3.40;;;25.50;99.90;;;;;;5042966;28;20112;-56
2023/07/03 04:02:00;;;;;;;5.43;3.25;;;25.30;99.90;;;;;;5053518;28;20028;-54
2023/07/03 04:04:26;;;;;;;5.95;3.30;;;25.20;99.90;;;;;;5051177;28;20036;-56
2023/07/03 04:06:52;;;;;;;4.72;3.33;;;25.40;99.90;;;;;;5050691;28;20021;-51
2023/07/03 04:09:18;;;;;;;6.88;3.28;;;25.40;99.90;;;;;;5050102;28;20057;-55
2023/07/03 04:11:43;;;;;;;4.93;3.30;;;25.40;99.90;;;;;;5043219;28;20029;-53
2023/07/03 04:14:09;;;;;;;7.82;3.30;;;25.40;99.90;;;;;;5052906;28;20021;-53
2023/07/03 04:16:35;;;;;;;5.40;3.47;;;25.40;99.90;;;;;;5051697;28;20029;-57
2023/07/03 04:19:01;;;;;;;7.70;3.30;;;25.40;99.90;;;;;;5050066;28;20021;-52
2023/07/03 04:21:27;;;;;;;6.13;3.47;;;25.40;99.90;;;;;;5051104;28;20132;-57
2023/07/03 04:23:53;;;;;;;5.55;3.35;;;25.30;99.90;;;;;;5077346;28;20115;-55
2023/07/03 04:26:18;;;;;;;4.95;2.92;;;25.40;99.90;;;;;;5047620;28;20044;-56
2023/07/03 04:28:44;;;;;;;5.22;3.42;;;25.40;99.90;;;;;;5050746;28;20025;-55
2023/07/03 04:31:10;;;;;;;5.93;3.28;;;25.30;99.90;;;;;;5053239;28;20116;-57
2023/07/03 04:33:35;;;;;;;5.07;3.25;;;25.30;99.90;;;;;;5051940;28;20036;-56
2023/07/03 04:36:01;;;;;;;4.90;3.20;;;25.40;99.90;;;;;;5050926;28;20033;-54
2023/07/03 04:38:27;;;;;;;6.75;2.92;;;25.40;99.90;;;;;;5053219;28;20112;-54
2023/07/03 04:40:54;;;;;;;4.97;3.15;;;25.30;99.90;;;;;;5034187;28;20029;-54
2023/07/03 04:43:20;;;;;;;4.75;3.08;;;25.40;99.90;;;;;;5051195;28;20033;-56
2023/07/03 04:45:51;;;;;;;8.38;3.45;;;25.40;99.90;;;;;;5050273;28;20025;-56
2023/07/03 04:48:18;;;;;;;9.07;3.92;;;25.30;99.90;;;;;;5049045;28;20025;-52
2023/07/03 04:50:48;;;;;;;5.32;3.55;;;25.30;99.90;;;;;;5053101;28;20382;-57
2023/07/03 04:53:14;;;;;;;5.85;3.35;;;25.30;99.90;;;;;;5048694;28;20160;-55
2023/07/03 04:55:41;;;;;;;6.45;3.58;;;25.20;99.90;;;;;;5047755;28;20036;-56
2023/07/03 04:58:07;;;;;;;5.70;3.28;;;25.10;99.90;;;;;;5053247;28;20029;-55
2023/07/03 05:00:33;;;;;;;6.90;3.50;;;25.20;99.90;;;;;;5051417;28;20025;-56
2023/07/03 05:03:02;;;;;;;7.22;3.50;;;25.30;99.90;;;;;;5043562;28;20030;-55
2023/07/03 05:05:28;;;;;;;7.88;3.90;;;25.30;99.90;;;;;;5045923;28;20082;-56
2023/07/03 05:07:54;;;;;;;4.38;3.42;;;25.40;99.90;;;;;;5048025;28;20037;-70
2023/07/03 05:10:22;;;;;;;6.47;3.47;;;25.40;99.90;;;;;;5046041;28;20061;-70
2023/07/03 05:12:48;;;;;;;6.00;3.40;;;25.30;99.90;;;;;;5041482;28;20022;-69
2023/07/03 05:15:15;;;;;;;4.32;3.15;;;25.30;99.90;;;;;;5045568;28;20021;-77
2023/07/03 05:17:40;;;;;;;4.65;3.40;;;25.20;99.90;;;;;;5048244;28;20029;-71
2023/07/03 05:20:09;;;;;;;6.38;3.70;;;25.40;99.90;;;;;;5049852;28;20090;-72
2023/07/03 05:22:37;;;;;;;7.15;3.20;;;25.40;99.90;;;;;;5051484;28;20107;-73
2023/07/03 05:25:02;;;;;;;4.97;3.47;;;25.50;99.90;;;;;;5044144;28;20040;-74
2023/07/03 05:27:28;;;;;;;5.40;3.17;;;25.60;99.90;;;;;;5046939;28;20447;-71
2023/07/03 05:29:54;;;;;;;6.30;3.50;;;25.60;99.90;;;;;;5043773;28;20037;-69
2023/07/03 05:32:19;;;;;;;6.18;3.90;;;25.50;99.90;;;;;;5039986;28;20111;-73
2023/07/03 05:34:45;;;;;;;7.25;3.50;;;25.50;99.90;;;;;;5044521;28;20060;-80
2023/07/03 05:37:11;;;;;;;5.20;3.33;;;25.50;99.90;;;;;;5042510;28;20312;-79
2023/07/03 05:39:36;;;;;;;5.55;3.30;;;25.60;99.90;;;;;;5053304;28;20025;-73
2023/07/03 05:42:02;;;;;;;7.30;3.42;;;25.60;99.90;;;;;;5049386;28;20017;-67
2023/07/03 05:44:28;;;;;;;7.70;3.72;;;25.60;99.90;;;;;;5048063;28;20037;-65
2023/07/03 05:46:53;;;;;;;8.43;3.80;;;25.60;99.90;;;;;;5049386;28;20112;-66
2023/07/03 05:49:19;;;;;;;5.47;3.47;;;25.40;99.90;;;;;;5042996;28;20526;-73
2023/07/03 05:51:45;;;;;;;5.53;3.45;;;25.50;99.90;;;;;;5053137;28;20055;-73
2023/07/03 05:54:10;;;;;;;5.00;3.45;;;25.30;99.90;;;;;;5044340;28;20088;-72
2023/07/03 05:56:36;;;;;;;4.55;3.38;;;25.10;99.90;;;;;;5038508;28;20504;-69
2023/07/03 05:59:02;;;;;;;5.65;3.55;;;25.30;99.90;;;;;;5047452;28;20036;-72
2023/07/03 06:01:28;;;;;;;8.95;3.70;;;25.30;99.90;;;;;;5052680;28;20466;-67
2023/07/03 06:03:54;;;;;;;5.45;3.63;;;25.30;99.90;;;;;;5044358;28;20021;-67
2023/07/03 06:06:19;;;;;;;7.15;3.72;;;25.50;99.90;;;;;;5051402;28;20549;-67
2023/07/03 06:08:45;;;;;;;6.93;3.10;;;25.60;99.90;;;;;;5045323;28;20560;-67
2023/07/03 06:11:11;;;;;;;5.45;3.22;;;25.70;99.90;;;;;;5052165;28;20108;-66
2023/07/03 06:13:37;;;;;;;7.45;3.83;;;25.70;99.90;;;;;;5053070;28;20048;-64
2023/07/03 06:16:03;;;;;;;6.15;3.05;;;25.70;99.90;;;;;;5050199;28;20466;-69
2023/07/03 06:18:28;;;;;;;4.35;2.95;;;25.80;99.90;;;;;;5045588;28;20025;-67
2023/07/03 06:20:54;;;;;;;4.55;3.53;;;25.60;99.90;;;;;;5043432;28;20032;-66
2023/07/03 06:23:20;;;;;;;8.45;3.40;;;25.40;99.90;;;;;;5051432;28;20104;-69
2023/07/03 06:25:46;;;;;;;5.95;4.05;;;25.50;99.90;;;;;;5051712;28;20060;-67
2023/07/03 06:28:12;;;;;;;9.98;3.63;;;25.50;99.90;;;;;;5051727;28;20043;-66
2023/07/03 06:30:38;;;;;;;6.28;3.38;;;25.70;99.90;;;;;;5039184;28;20498;-70
2023/07/03 06:33:04;;;;;;;6.18;3.30;;;25.50;99.90;;;;;;5047661;28;20425;-70
2023/07/03 06:35:30;;;;;;;9.73;3.33;;;25.40;99.90;;;;;;5049013;28;20032;-68
2023/07/03 06:37:58;;;;;;;4.07;3.50;;;25.40;99.90;;;;;;5046722;28;20021;-74
2023/07/03 06:40:24;;;;;;;8.30;3.67;;;25.40;99.90;;;;;;5050710;28;20432;-77
2023/07/03 06:42:52;;;;;;;4.97;3.03;;;25.40;99.90;;;;;;5052699;28;20104;-72
2023/07/03 06:45:18;;;;;;;5.93;3.38;;;25.60;99.90;;;;;;5039663;28;20029;-72
2023/07/03 06:47:43;;;;;;;6.55;3.50;;;25.90;99.90;;;;;;5048717;28;20032;-66
2023/07/03 06:50:09;;;;;;;6.60;4.07;;;25.90;99.90;;;;;;5048972;28;20116;-70
2023/07/03 06:52:36;;;;;;;6.57;3.40;;;25.80;99.90;;;;;;5037534;28;20498;-74
2023/07/03 06:55:03;;;;;;;7.07;3.42;;;25.90;99.90;;;;;;5046634;28;20020;-66
2023/07/03 06:57:29;;;;;;;6.22;3.55;;;25.80;99.90;;;;;;5046325;28;20025;-61
2023/07/03 06:59:54;;;;;;;4.63;3.75;;;25.80;99.90;;;;;;5036534;28;20113;-61
2023/07/03 07:02:20;;;;;;;7.70;3.63;;;26.10;99.90;;;;;;5050197;28;20029;-61
2023/07/03 07:04:46;;;;;;;4.65;3.10;;;26.00;99.90;;;;;;5045539;28;20028;-61
2023/07/03 07:07:11;;;;;;;6.55;3.45;;;25.80;99.90;;;;;;5046428;28;20063;-61
2023/07/03 07:09:38;;;;;;;4.35;3.67;;;25.90;99.90;;;;;;5048862;28;20049;-61
2023/07/03 07:12:04;;;;;;;4.85;2.72;;;25.90;99.90;;;;;;5041650;28;20108;-61
2023/07/03 07:14:29;;;;;;;4.47;3.40;;;26.00;99.90;;;;;;5036897;28;20152;-61
2023/07/03 07:16:56;;;;;;;7.03;3.50;;;26.00;99.90;;;;;;5041393;28;20032;-61
2023/07/03 07:19:22;;;;;;;7.82;3.83;;;26.10;99.90;;;;;;5042280;28;20126;-61
2023/07/03 07:21:49;;;;;;;7.07;4.00;;;26.30;99.90;;;;;;5047213;28;20055;-61
2023/07/03 07:24:19;;;;;;;5.40;3.58;;;26.40;99.90;;;;;;5043204;28;20021;-61
2023/07/03 07:26:46;;;;;;;4.10;3.63;;;26.30;99.90;;;;;;5042206;28;20065;-61
2023/07/03 07:29:12;;;;;;;6.10;4.35;;;26.10;99.90;;;;;;5042132;28;20055;-61
2023/07/03 07:31:38;;;;;;;5.95;4.07;;;26.20;99.90;;;;;;5053000;28;20096;-61
2023/07/03 07:34:06;;;;;;;5.03;3.33;;;26.30;99.90;;;;;;5052208;28;20025;-61
2023/07/03 07:36:32;;;;;;;6.72;4.07;;;26.30;99.90;;;;;;5052773;28;20441;-61
2023/07/03 07:39:00;;;;;;;7.50;3.85;;;26.50;99.90;;;;;;5055365;28;20028;-60
2023/07/03 07:41:27;;;;;;;5.28;3.47;;;26.40;99.90;;;;;;5053708;28;20482;-61
2023/07/03 07:43:54;;;;;;;5.85;3.90;;;26.60;99.90;;;;;;5050935;28;20481;-61
2023/07/03 07:46:21;;;;;;;7.15;3.80;;;26.60;99.90;;;;;;5043728;28;20482;-61
2023/07/03 07:48:47;;;;;;;4.97;3.83;;;26.60;99.90;;;;;;5049245;28;20031;-60
2023/07/03 07:51:13;;;;;;;4.10;3.35;;;26.60;99.90;;;;;;5052333;28;20044;-61
2023/07/03 07:53:39;;;;;;;7.78;4.32;;;26.70;99.90;;;;;;5045241;28;20029;-60
2023/07/03 07:56:07;;;;;;;5.15;4.20;;;26.70;99.90;;;;;;5051680;28;20167;-61
2023/07/03 07:58:33;;;;;;;5.55;3.88;;;26.70;99.90;;;;;;5054241;28;20033;-61
2023/07/03 08:00:59;;;;;;;6.43;3.97;;;26.50;99.90;;;;;;5046572;28;20356;-61
2023/07/03 08:03:26;;;;;;;7.65;3.70;;;26.60;99.90;;;;;;5046385;28;20036;-60
2023/07/03 08:06:03;;;;;;;5.57;3.42;;;26.80;99.90;;;;;;5053997;28;20029;-60
2023/07/03 08:08:30;;;;;;;7.10;3.97;;;27.10;99.90;;;;;;5053742;28;20072;-58
2023/07/03 08:10:58;;;;;;;4.47;4.03;;;27.00;99.90;;;;;;5057437;28;20033;-59
2023/07/03 08:13:24;;;;;;;5.07;3.88;;;27.00;99.90;;;;;;5059185;28;20025;-62
2023/07/03 08:15:51;;;;;;;6.50;3.85;;;27.10;99.90;;;;;;5050446;28;20364;-60
2023/07/03 08:18:17;;;;;;;6.90;4.13;;;27.10;99.90;;;;;;5041843;28;20041;-62
2023/07/03 08:20:43;;;;;;;5.10;4.20;;;27.10;99.90;;;;;;5042381;28;20552;-60
2023/07/03 08:23:09;;;;;;;8.20;4.05;;;27.10;99.90;;;;;;5043724;28;20139;-60
2023/07/03 08:25:35;;;;;;;7.07;3.58;;;27.10;99.90;;;;;;5038262;28;20128;-60
2023/07/03 08:28:00;;;;;;;3.97;2.83;;;27.30;99.90;;;;;;5046980;28;20037;-59
2023/07/03 08:30:26;;;;;;;7.60;3.50;;;27.30;99.90;;;;;;5048795;28;20041;-61
2023/07/03 08:32:52;;;;;;;8.43;3.72;;;27.30;99.90;;;;;;5048886;28;20033;-61
2023/07/03 08:35:17;;;;;;;5.70;3.50;;;27.20;99.90;;;;;;5044178;28;20025;-60
2023/07/03 08:37:43;;;;;;;6.80;4.15;;;27.10;99.90;;;;;;5052015;28;20031;-60
2023/07/03 08:40:15;;;;;;;3.85;3.45;;;27.10;99.90;;;;;;5037652;28;20061;-61
2023/07/03 08:42:55;;;;;;;5.78;3.42;;;27.10;99.90;;;;;;5043908;28;20033;-61
2023/07/03 08:45:35;;;;;;;5.43;3.50;;;27.30;99.90;;;;;;5049694;28;20155;-61
2023/07/03 08:48:05;;;;;;;4.88;3.53;;;27.30;99.90;;;;;;5038784;28;20025;-61
2023/07/03 08:50:32;;;;;;;4.47;3.47;;;27.40;99.90;;;;;;5041295;28;20608;-61
2023/07/03 08:53:03;;;;;;;3.97;2.85;;;27.50;99.90;;;;;;5042245;28;20025;-61
2023/07/03 08:55:34;;;;;;;3.97;3.20;;;27.60;99.90;;;;;;5052267;28;20025;-61
2023/07/03 08:58:01;;;;;;;5.93;3.33;;;27.50;99.90;;;;;;5050557;28;20025;-61
2023/07/03 09:00:32;;;;;;;3.97;3.40;;;27.50;99.90;;;;;;5044942;28;20040;-61
2023/07/03 09:03:05;;;;;;;9.57;3.85;;;27.60;99.90;;;;;;5049258;28;20025;-60
2023/07/03 09:05:59;;;;;;;6.35;3.53;;;27.80;99.90;;;;;;5051901;28;20048;-60
2023/07/03 09:08:35;;;;;;;7.43;3.75;;;27.90;99.90;;;;;;5046924;28;20106;-60
2023/07/03 09:11:02;;;;;;;4.38;3.95;;;27.80;99.90;;;;;;5044900;28;20372;-60
2023/07/03 09:13:39;;;;;;;6.25;3.67;;;27.90;99.90;;;;;;5045417;28;20017;-58
2023/07/03 09:16:23;;;;;;;5.72;3.65;;;28.10;99.90;;;;;;5044146;28;20072;-59
2023/07/03 09:18:58;;;;;;;4.07;3.40;;;28.10;99.90;;;;;;5078129;28;20040;-59
2023/07/03 09:21:26;;;;;;;4.07;3.33;;;28.20;99.90;;;;;;5047634;28;20029;-59
2023/07/03 09:24:13;;;;;;;4.65;3.33;;;28.30;99.90;;;;;;5051568;28;20032;-60
2023/07/03 09:26:44;;;;;;;4.85;3.17;;;28.40;99.90;;;;;;5036778;28;20184;-60
2023/07/03 09:29:11;;;;;;;4.45;3.13;;;28.40;99.90;;;;;;5048271;28;20028;-60
2023/07/03 09:31:37;;;;;;;4.18;3.55;;;28.40;99.90;;;;;;5037442;28;20037;-76
2023/07/03 09:34:02;;;;;;;4.05;3.22;;;28.40;99.90;;;;;;5054653;28;20024;-72
2023/07/03 09:36:34;;;;;;;4.30;3.58;;;28.40;99.90;;;;;;5045850;28;20040;-68
2023/07/03 09:39:09;;;;;;;6.22;4.65;;;28.50;99.90;;;;;;5044245;28;20052;-67
2023/07/03 09:41:36;;;;;;;6.72;3.38;;;28.50;99.90;;;;;;5053440;28;20083;-62
2023/07/03 09:44:07;;;;;;;5.40;3.00;;;28.60;99.90;;;;;;5050328;28;20119;-68
2023/07/03 09:46:33;;;;;;;5.05;3.28;;;28.50;99.90;;;;;;5047353;28;20032;-70
2023/07/03 09:49:02;;;;;;;4.95;3.45;;;28.50;99.90;;;;;;5056361;28;20081;-65
2023/07/03 09:51:30;;;;;;;7.45;3.83;;;28.50;99.90;;;;;;5052493;28;20029;-66
2023/07/03 09:53:57;;;;;;;5.05;4.35;;;28.60;99.90;;;;;;5049839;28;20494;-68
2023/07/03 09:56:28;;;;;;;5.10;3.05;;;28.60;99.90;;;;;;5051852;28;20363;-71
2023/07/03 10:04:08;;;;;;;3.97;2.92;;;28.90;99.90;;;;;;5013945;28;20038;-63
2023/07/03 10:06:35;;;;;;;3.38;3.08;;;29.10;99.90;;;;;;5031551;28;20131;-65
2023/07/03 10:09:05;;;;;;;3.72;2.92;;;29.40;99.90;;;;;;5027339;28;20025;-63
2023/07/03 10:11:40;;;;;;;5.22;3.60;;;28.80;99.90;;;;;;5015160;28;20452;-62
2023/07/03 10:14:10;;;;;;;3.95;3.28;;;28.80;99.90;;;;;;5032835;28;20014;-62
2023/07/03 10:16:37;;;;;;;3.55;3.22;;;28.70;99.90;;;;;;5032654;28;20029;-62
2023/07/03 10:19:03;;;;;;;5.43;3.55;;;28.90;99.90;;;;;;5032144;28;20033;-61
2023/07/03 10:21:30;;;;;;;3.50;3.20;;;28.90;99.90;;;;;;5018849;28;20036;-63
2023/07/03 10:23:58;;;;;;;5.55;3.30;;;29.10;99.90;;;;;;5023567;28;20029;-63
2023/07/03 10:26:32;;;;;;;7.35;4.53;;;28.90;99.90;;;;;;5018959;28;20037;-64
2023/07/03 10:29:08;;;;;;;6.25;4.00;;;29.00;99.90;;;;;;5020085;28;20433;-62
2023/07/03 10:31:38;;;;;;;4.78;3.65;;;29.10;99.90;;;;;;5024762;28;20393;-63
2023/07/03 10:34:10;;;;;;;5.05;3.50;;;29.10;99.90;;;;;;5019137;28;20513;-62
2023/07/03 10:36:39;;;;;;;6.45;3.55;;;29.50;99.90;;;;;;5030670;28;20470;-62
2023/07/03 10:39:14;;;;;;;5.50;3.40;;;29.70;99.90;;;;;;5020529;28;20029;-61
2023/07/03 10:41:57;;;;;;;3.72;3.28;;;29.40;99.90;;;;;;5017799;28;20036;-63
2023/07/03 10:44:29;;;;;;;4.10;3.45;;;29.40;99.90;;;;;;5023274;28;20355;-63
2023/07/03 10:47:33;;;;;;;5.45;3.55;;;29.70;99.90;;;;;;5029433;28;20083;-62
2023/07/03 10:49:59;;;;;;;3.67;3.25;;;30.20;99.90;;;;;;5026208;28;20131;-67
2023/07/03 10:52:29;;;;;;;3.55;3.22;;;30.00;99.90;;;;;;5031971;28;20505;-61
2023/07/03 10:55:23;;;;;;;3.35;3.05;;;30.50;99.90;;;;;;5023929;28;20518;-62
2023/07/03 10:58:03;;;;;;;3.25;3.03;;;29.90;99.90;;;;;;4987899;28;20040;-63
2023/07/03 11:00:38;;;;;;;3.80;3.22;;;29.40;99.90;;;;;;5030078;28;20049;-63
2023/07/03 11:03:28;;;;;;;5.43;3.47;;;29.60;99.90;;;;;;5031337;28;20398;-64
2023/07/03 11:06:04;;;;;;;5.78;4.25;;;29.50;99.90;;;;;;5032758;28;20029;-61
2023/07/03 11:08:46;;;;;;;23.25;16.77;;;29.90;99.90;;;;;;5034513;28;20589;-61
2023/07/03 11:11:18;;;;;;;10.60;7.78;;;30.10;99.90;;;;;;5029837;28;20037;-61
2023/07/03 11:14:08;;;;;;;39.75;19.77;;;30.20;99.90;;;;;;5033252;28;20083;-60
2023/07/03 11:17:05;;;;;;;7.78;5.45;;;29.80;99.90;;;;;;5031586;28;20067;-61
2023/07/03 11:19:42;;;;;;;5.90;4.03;;;30.20;99.90;;;;;;5034099;28;20486;-61
2023/07/03 11:22:15;;;;;;;9.02;4.10;;;30.70;99.90;;;;;;5026293;28;20489;-61
2023/07/03 11:24:50;;;;;;;6.03;4.30;;;31.60;99.90;;;;;;5035448;28;20159;-61
2023/07/03 11:27:41;;;;;;;5.88;4.07;;;34.30;99.90;;;;;;5035468;28;20036;-60
2023/07/03 11:30:08;;;;;;;5.82;5.28;;;34.80;99.90;;;;;;5036115;28;20033;-61
2023/07/03 11:32:35;;;;;;;6.00;4.50;;;34.70;99.90;;;;;;5034012;28;20040;-61
2023/07/03 11:35:02;;;;;;;6.47;5.32;;;35.00;99.90;;;;;;5034726;28;20028;-61
2023/07/03 11:37:46;;;;;;;9.98;6.43;;;34.80;99.90;;;;;;5035181;28;20034;-60
2023/07/03 11:40:33;;;;;;;10.63;7.13;;;35.10;99.90;;;;;;5034855;28;20025;-60
2023/07/03 11:43:17;;;;;;;5.47;4.57;;;37.30;99.90;;;;;;5034244;28;20022;-60
2023/07/03 11:45:51;;;;;;;84.32;75.20;;;40.70;99.90;;;;;;5032552;28;20025;-60
2023/07/03 11:48:30;;;;;;;19.90;15.77;;;40.80;99.90;;;;;;5017949;28;20037;-61
2023/07/03 11:51:12;;;;;;;8.98;8.07;;;41.60;99.90;;;;;;5033105;28;20107;-61
2023/07/03 11:53:51;;;;;;;13.68;12.27;;;42.30;99.90;;;;;;5026901;28;20482;-60
2023/07/03 11:56:32;;;;;;;7.13;6.53;;;42.00;99.90;;;;;;5035797;28;20139;-60
2023/07/03 11:59:23;;;;;;;18.88;17.08;;;42.80;99.90;;;;;;5029835;28;20045;-60
2023/07/03 12:01:49;;;;;;;6.22;4.93;;;42.40;99.90;;;;;;5027390;28;20032;-61
2023/07/03 12:04:47;;;;;;;5.50;5.00;;;42.10;99.90;;;;;;5034680;28;20045;-61
2023/07/03 12:07:19;;;;;;;8.18;7.47;;;42.40;99.90;;;;;;5033384;28;20109;-60
2023/07/03 12:09:46;;;;;;;5.72;5.22;;;42.30;99.90;;;;;;5035110;28;20496;-61
2023/07/03 12:12:20;;;;;;;7.03;6.00;;;43.20;99.90;;;;;;5035070;28;20410;-61
2023/07/03 12:17:30;;;;;;;11.70;10.38;;;41.30;99.90;;;;;;5034001;28;20395;-60
2023/07/03 12:20:05;;;;;;;5.20;4.80;;;39.20;99.90;;;;;;5034094;28;20092;-61
2023/07/03 12:22:40;;;;;;;7.50;4.85;;;38.20;99.90;;;;;;5031242;28;20524;-61
2023/07/03 12:25:08;;;;;;;5.22;4.70;;;37.30;99.90;;;;;;5033456;28;20021;-61
2023/07/03 12:27:36;;;;;;;8.00;5.60;;;38.60;99.90;;;;;;5033639;28;20109;-61
2023/07/03 12:30:03;;;;;;;6.13;4.97;;;38.70;99.90;;;;;;5034911;28;20049;-61
2023/07/03 12:32:32;;;;;;;5.95;5.38;;;38.10;99.90;;;;;;5016854;28;20052;-70
2023/07/03 12:35:19;;;;;;;5.40;5.00;;;37.50;99.90;;;;;;5034169;28;20068;-69
2023/07/03 12:37:47;;;;;;;5.65;4.28;;;38.70;99.90;;;;;;5034562;28;20024;-73
2023/07/03 12:40:16;;;;;;;5.72;5.05;;;38.30;99.90;;;;;;5034889;28;20017;-65
2023/07/03 12:42:46;;;;;;;5.45;4.95;;;37.80;99.90;;;;;;5033608;28;20108;-67
2023/07/03 12:45:18;;;;;;;5.82;5.18;;;37.60;99.90;;;;;;5016709;28;20061;-65
2023/07/03 12:47:45;;;;;;;6.30;5.00;;;37.90;99.90;;;;;;5033245;28;20382;-64
2023/07/03 12:50:18;;;;;;;6.10;5.47;;;39.60;99.90;;;;;;5026208;28;20033;-62
2023/07/03 12:52:44;;;;;;;5.30;4.90;;;39.30;99.90;;;;;;5034188;28;20021;-65
2023/07/03 12:55:11;;;;;;;5.13;4.72;;;39.10;99.90;;;;;;5028844;28;20040;-66
2023/07/03 12:57:37;;;;;;;5.32;4.82;;;38.50;99.90;;;;;;5034763;28;20087;-65
2023/07/03 13:00:06;;;;;;;5.28;4.88;;;37.40;99.90;;;;;;5033599;28;20052;-66
2023/07/03 13:02:34;;;;;;;6.20;5.60;;;36.00;99.90;;;;;;5033287;28;20124;-64
2023/07/03 13:05:06;;;;;;;6.38;5.88;;;35.50;99.90;;;;;;5034466;28;20371;-73